createdAt,value
2017-06-14T00:01:38.389Z,5.00
2017-06-14T00:04:06.445Z,4.75
2017-06-14T00:06:34.504Z,5.20
2017-06-14T00:09:02.580Z,5.10
2017-06-14T00:11:30.698Z,4.75
2017-06-14T00:13:59.517Z,5.80
2017-06-14T00:16:27.574Z,4.30
2017-06-14T00:18:55.655Z,4.40
2017-06-14T00:21:24.106Z,5.47
2017-06-14T00:23:52.594Z,5.05
2017-06-14T00:26:21.418Z,6.07
2017-06-14T00:28:49.478Z,4.97
2017-06-14T00:31:20.395Z,4.82
2017-06-14T00:33:49.238Z,5.53
2017-06-14T00:36:17.294Z,5.43
2017-06-14T00:38:45.382Z,5.45
2017-06-14T00:41:13.434Z,4.72
2017-06-14T00:43:41.486Z,5.72
2017-06-14T00:46:09.563Z,4.93
2017-06-14T00:48:37.630Z,5.40
2017-06-14T00:51:05.714Z,5.25
2017-06-14T00:53:33.795Z,5.90
2017-06-14T00:56:01.859Z,5.05
2017-06-14T00:58:29.955Z,5.68
2017-06-14T01:00:58.013Z,5.95
2017-06-14T01:03:26.075Z,4.80
2017-06-14T01:05:54.154Z,5.70
2017-06-14T01:08:22.210Z,5.85
2017-06-14T01:10:59.178Z,5.32
2017-06-14T01:13:27.994Z,5.72
2017-06-14T01:15:56.049Z,5.40
2017-06-14T01:18:24.518Z,6.15
2017-06-14T01:20:53.333Z,6.05
2017-06-14T01:23:21.397Z,5.90
2017-06-14T01:25:49.469Z,6.20
2017-06-14T01:28:17.517Z,6.70
2017-06-14T01:30:45.570Z,5.95
2017-06-14T01:33:13.633Z,5.53
2017-06-14T01:35:41.685Z,5.43
2017-06-14T01:38:09.781Z,6.28
2017-06-14T01:40:37.833Z,6.03
2017-06-14T01:43:05.897Z,6.45
2017-06-14T01:45:33.978Z,5.90
2017-06-14T01:48:02.029Z,6.90
2017-06-14T01:50:30.085Z,6.10
2017-06-14T01:52:58.151Z,6.43
2017-06-14T01:55:26.197Z,6.65
2017-06-14T01:57:54.265Z,6.72
2017-06-14T02:00:23.101Z,6.80
2017-06-14T02:02:51.941Z,7.20
2017-06-14T02:05:19.995Z,7.20
2017-06-14T02:07:48.059Z,7.70
2017-06-14T02:10:16.145Z,8.07
2017-06-14T02:12:44.190Z,6.87
2017-06-14T02:15:12.242Z,7.00
2017-06-14T02:17:40.340Z,7.05
2017-06-14T02:20:08.389Z,7.25
2017-06-14T02:22:36.437Z,6.97
2017-06-14T02:25:04.510Z,7.40
2017-06-14T02:27:32.570Z,7.93
2017-06-14T02:30:01.421Z,8.07
2017-06-14T02:32:30.242Z,7.25
2017-06-14T02:34:58.296Z,7.25
2017-06-14T02:37:26.365Z,7.68
2017-06-14T02:39:54.421Z,7.57
2017-06-14T02:42:22.868Z,7.75
2017-06-14T02:44:50.940Z,7.30
2017-06-14T02:47:19.385Z,7.68
2017-06-14T02:49:48.218Z,7.95
2017-06-14T02:52:16.297Z,7.90
2017-06-14T02:54:44.349Z,7.55
2017-06-14T02:57:13.170Z,7.65
2017-06-14T02:59:41.257Z,6.93
2017-06-14T03:02:09.313Z,7.68
2017-06-14T03:04:37.352Z,7.20
2017-06-14T03:07:05.425Z,7.28
2017-06-14T03:09:33.880Z,7.55
2017-06-14T03:12:01.953Z,7.30
2017-06-14T03:14:30.773Z,7.68
2017-06-14T03:16:59.585Z,7.72
2017-06-14T03:19:27.649Z,6.07
2017-06-14T03:21:55.779Z,8.02
2017-06-14T03:24:24.329Z,7.07
2017-06-14T03:26:52.380Z,6.70
2017-06-14T03:29:20.433Z,7.35
2017-06-14T03:31:48.522Z,7.18
2017-06-14T03:34:16.565Z,7.50
2017-06-14T03:36:45.390Z,7.00
2017-06-14T03:39:13.453Z,6.40
2017-06-14T03:41:41.514Z,7.15
2017-06-14T03:44:09.597Z,6.62
2017-06-14T03:46:37.647Z,7.18
2017-06-14T03:49:05.700Z,5.80
2017-06-14T03:51:34.213Z,6.90
2017-06-14T03:54:02.266Z,6.00
2017-06-14T03:56:30.317Z,5.95
2017-06-14T03:58:58.433Z,5.93
2017-06-14T04:01:26.485Z,6.53
2017-06-14T04:03:54.540Z,5.78
2017-06-14T04:06:23.386Z,5.97
2017-06-14T04:08:51.436Z,5.65
2017-06-14T04:11:19.493Z,6.37
2017-06-14T04:13:47.581Z,5.47
2017-06-14T04:16:15.641Z,6.12
2017-06-14T04:18:43.681Z,5.80
2017-06-14T04:21:12.525Z,5.87
2017-06-14T04:23:40.578Z,5.85
2017-06-14T04:26:08.629Z,5.50
2017-06-14T04:28:37.473Z,5.90
2017-06-14T04:31:05.525Z,5.10
2017-06-14T04:33:33.573Z,5.80
2017-06-14T04:36:01.651Z,5.20
2017-06-14T04:38:29.693Z,5.15
2017-06-14T04:40:58.511Z,5.45
2017-06-14T04:43:26.589Z,4.78
2017-06-14T04:45:54.640Z,5.72
2017-06-14T04:48:23.090Z,5.47
2017-06-14T04:50:51.169Z,5.65
2017-06-14T04:53:19.219Z,4.60
2017-06-14T04:55:47.273Z,5.25
2017-06-14T04:58:15.348Z,5.45
2017-06-14T05:00:43.396Z,4.93
2017-06-14T05:03:11.481Z,6.43
2017-06-14T05:05:39.532Z,5.45
2017-06-14T05:08:07.977Z,6.00
2017-06-14T05:10:36.069Z,5.75
2017-06-14T05:13:04.885Z,5.93
2017-06-14T05:15:32.933Z,6.03
2017-06-14T05:18:01.785Z,5.87
2017-06-14T05:20:29.837Z,5.85
2017-06-14T05:22:57.885Z,6.90
2017-06-14T05:25:25.977Z,6.18
2017-06-14T05:27:54.026Z,6.87
2017-06-14T05:30:22.081Z,6.35
2017-06-14T05:32:50.933Z,7.37
2017-06-14T05:35:18.990Z,6.82
2017-06-14T05:37:47.429Z,6.00
2017-06-14T05:40:15.909Z,6.80
2017-06-14T05:42:43.977Z,6.37
2017-06-14T05:45:12.508Z,6.85
2017-06-14T05:47:40.574Z,7.60
2017-06-14T05:50:08.629Z,6.60
2017-06-14T05:52:36.685Z,7.65
2017-06-14T05:55:04.924Z,7.70
2017-06-14T05:57:33.375Z,8.88
2017-06-14T06:00:01.427Z,7.72
2017-06-14T06:02:29.513Z,8.63
2017-06-14T06:04:57.565Z,7.55
2017-06-14T06:07:25.630Z,6.70
2017-06-14T06:09:53.713Z,7.18
2017-06-14T06:12:21.792Z,7.43
2017-06-14T06:14:49.868Z,8.02
2017-06-14T06:17:17.941Z,8.40
2017-06-14T06:19:46.014Z,8.40
2017-06-14T06:22:14.478Z,7.32
2017-06-14T06:24:42.546Z,7.85
2017-06-14T06:27:10.601Z,8.85
2017-06-14T06:29:38.681Z,7.30
2017-06-14T06:32:07.502Z,7.00
2017-06-14T06:34:35.550Z,6.50
2017-06-14T06:37:03.629Z,7.40
2017-06-14T06:39:31.677Z,7.15
2017-06-14T06:42:00.496Z,7.82
2017-06-14T06:44:28.565Z,7.68
2017-06-14T06:46:56.633Z,7.62
2017-06-14T06:49:24.689Z,7.43
2017-06-14T06:51:53.094Z,7.70
2017-06-14T06:54:21.145Z,6.87
2017-06-14T06:56:49.197Z,7.37
2017-06-14T06:59:18.049Z,7.93
2017-06-14T07:01:46.870Z,6.97
2017-06-14T07:04:15.317Z,8.15
2017-06-14T07:06:43.404Z,7.50
2017-06-14T07:09:11.457Z,6.87
2017-06-14T07:11:39.505Z,7.43
2017-06-14T07:14:07.585Z,6.40
2017-06-14T07:16:35.641Z,7.20
2017-06-14T07:19:03.693Z,6.80
2017-06-14T07:21:31.768Z,7.40
2017-06-14T07:23:59.818Z,6.78
2017-06-14T07:26:27.871Z,7.53
2017-06-14T07:28:56.341Z,8.95
2017-06-14T07:31:24.393Z,8.48
2017-06-14T07:33:53.209Z,6.35
2017-06-14T07:36:21.289Z,6.93
2017-06-14T07:38:49.338Z,7.15
2017-06-14T07:41:17.385Z,5.87
2017-06-14T07:43:45.463Z,6.32
2017-06-14T07:46:13.510Z,5.65
2017-06-14T07:48:41.572Z,5.78
2017-06-14T07:51:09.646Z,6.03
2017-06-14T07:53:38.093Z,6.18
2017-06-14T07:56:06.150Z,6.50
2017-06-14T07:58:34.217Z,5.87
2017-06-14T08:01:02.285Z,6.05
2017-06-14T08:03:30.345Z,6.05
2017-06-14T08:05:58.817Z,7.05
2017-06-14T08:08:26.869Z,8.27
2017-06-14T08:10:55.327Z,8.80
2017-06-14T08:13:23.401Z,7.05
2017-06-14T08:15:51.449Z,6.35
2017-06-14T08:18:19.533Z,6.22
2017-06-14T08:20:47.581Z,6.72
2017-06-14T08:23:15.633Z,7.30
2017-06-14T08:25:43.721Z,6.70
2017-06-14T08:28:11.777Z,5.68
2017-06-14T08:30:39.825Z,6.68
2017-06-14T08:33:08.669Z,5.87
2017-06-14T08:35:36.726Z,7.82
2017-06-14T08:38:04.798Z,7.03
2017-06-14T08:40:32.869Z,7.37
2017-06-14T08:43:00.917Z,6.30
2017-06-14T08:45:28.969Z,6.30
2017-06-14T08:47:57.818Z,6.72
2017-06-14T08:50:25.869Z,6.25
2017-06-14T08:52:53.913Z,6.95
2017-06-14T08:55:21.993Z,5.47
2017-06-14T08:57:50.050Z,7.93
2017-06-14T09:00:18.861Z,6.43
2017-06-14T09:02:47.047Z,6.60
2017-06-14T09:05:15.093Z,7.57
2017-06-14T09:07:43.145Z,9.10
2017-06-14T09:10:11.993Z,8.48
2017-06-14T09:12:40.044Z,7.65
2017-06-14T09:15:08.097Z,6.97
2017-06-14T09:17:36.175Z,5.57
2017-06-14T09:20:04.238Z,7.78
2017-06-14T09:22:33.052Z,8.25
2017-06-14T09:25:01.132Z,7.47
2017-06-14T09:27:29.586Z,8.25
2017-06-14T09:29:57.647Z,10.65
2017-06-14T09:32:25.735Z,15.93
2017-06-14T09:34:54.177Z,8.80
2017-06-14T09:37:22.237Z,6.90
2017-06-14T09:39:50.326Z,6.35
2017-06-14T09:42:19.141Z,7.12
2017-06-14T09:44:47.584Z,6.97
2017-06-14T09:47:15.669Z,7.25
2017-06-14T09:49:44.117Z,7.25
2017-06-14T09:52:12.164Z,5.72
2017-06-14T09:54:40.236Z,6.20
2017-06-14T09:57:08.286Z,6.32
2017-06-14T09:59:36.365Z,5.72
2017-06-14T10:02:04.416Z,6.47
2017-06-14T10:04:33.233Z,5.95
2017-06-14T10:07:01.313Z,5.47
2017-06-14T10:09:29.357Z,6.35
2017-06-14T10:11:58.178Z,6.70
2017-06-14T10:14:26.258Z,6.15
2017-06-14T10:16:54.310Z,6.37
2017-06-14T10:19:22.365Z,5.60
2017-06-14T10:21:50.459Z,5.53
2017-06-14T10:24:18.511Z,5.15
2017-06-14T10:26:46.561Z,5.10
2017-06-14T10:29:15.402Z,6.72
2017-06-14T10:31:43.453Z,7.32
2017-06-14T10:34:11.500Z,6.50
2017-06-14T10:36:40.337Z,6.70
2017-06-14T10:39:08.415Z,6.22
2017-06-14T10:41:36.477Z,6.30
2017-06-14T10:44:04.529Z,6.30
2017-06-14T10:46:33.961Z,6.32
2017-06-14T10:49:02.033Z,4.75
2017-06-14T10:51:30.089Z,5.53
2017-06-14T10:53:58.153Z,6.20
2017-06-14T10:56:26.221Z,6.32
2017-06-14T10:58:54.277Z,6.53
2017-06-14T11:01:22.350Z,7.30
2017-06-14T11:03:50.413Z,6.40
2017-06-14T11:06:19.230Z,4.87
2017-06-14T11:08:47.307Z,6.37
2017-06-14T11:11:15.353Z,6.37
2017-06-14T11:13:43.453Z,6.20
2017-06-14T11:16:11.525Z,5.53
2017-06-14T11:18:39.577Z,5.30
2017-06-14T11:21:07.625Z,6.30
2017-06-14T11:23:36.093Z,7.50
2017-06-14T11:26:04.151Z,7.32
2017-06-14T11:28:32.204Z,5.60
2017-06-14T11:31:00.286Z,6.12
2017-06-14T11:33:28.341Z,5.12
2017-06-14T11:35:56.394Z,5.35
2017-06-14T11:38:24.469Z,5.72
2017-06-14T11:40:52.516Z,5.57
2017-06-14T11:43:21.334Z,5.85
2017-06-14T11:45:49.413Z,5.40
2017-06-14T11:48:17.465Z,6.68
2017-06-14T11:50:45.569Z,5.68
2017-06-14T11:53:13.617Z,6.90
2017-06-14T11:55:41.693Z,5.90
2017-06-14T11:58:09.753Z,5.50
2017-06-14T12:00:37.802Z,6.35
2017-06-14T12:03:06.657Z,5.28
2017-06-14T12:05:34.705Z,5.62
2017-06-14T12:08:02.777Z,11.43
2017-06-14T12:10:30.872Z,5.93
2017-06-14T12:12:58.914Z,5.43
2017-06-14T12:15:26.970Z,6.50
2017-06-14T12:17:55.053Z,6.30
2017-06-14T12:20:23.109Z,7.28
2017-06-14T12:22:51.157Z,5.82
2017-06-14T12:25:20.022Z,5.87
2017-06-14T12:27:48.074Z,6.03
2017-06-14T12:30:16.125Z,6.20
2017-06-14T12:32:44.220Z,7.22
2017-06-14T12:35:12.273Z,6.43
2017-06-14T12:37:40.334Z,6.18
2017-06-14T12:40:08.397Z,5.55
2017-06-14T12:42:36.473Z,5.07
2017-06-14T12:45:04.525Z,5.18
2017-06-14T12:47:33.337Z,5.45
2017-06-14T12:50:01.425Z,6.57
2017-06-14T12:52:29.473Z,4.65
2017-06-14T12:54:57.525Z,4.53
2017-06-14T12:57:26.358Z,5.95
2017-06-14T12:59:54.404Z,5.32
2017-06-14T13:02:22.485Z,4.90
2017-06-14T13:04:50.548Z,4.80
2017-06-14T13:07:18.601Z,5.72
2017-06-14T13:09:46.677Z,4.80
2017-06-14T13:12:15.489Z,4.93
2017-06-14T13:14:43.543Z,5.22
2017-06-14T13:17:12.387Z,6.50
2017-06-14T13:19:40.437Z,4.65
2017-06-14T13:22:08.481Z,5.70
2017-06-14T13:24:37.353Z,4.50
2017-06-14T13:27:06.173Z,4.43
2017-06-14T13:29:34.225Z,4.40
2017-06-14T13:32:03.061Z,4.45
2017-06-14T13:34:31.113Z,4.90
2017-06-14T13:36:59.161Z,4.47
2017-06-14T13:39:27.237Z,4.60
2017-06-14T13:41:56.053Z,5.07
2017-06-14T13:44:24.101Z,4.00
2017-06-14T13:46:52.214Z,4.28
2017-06-14T13:49:20.261Z,4.82
2017-06-14T13:51:48.310Z,4.78
2017-06-14T13:54:17.157Z,3.60
2017-06-14T13:56:45.205Z,3.75
2017-06-14T13:59:13.266Z,4.20
2017-06-14T14:01:41.343Z,4.10
2017-06-14T14:04:09.381Z,4.95
2017-06-14T14:06:38.281Z,4.28
2017-06-14T14:09:06.333Z,3.70
2017-06-14T14:11:34.792Z,3.72
2017-06-14T14:14:02.855Z,3.95
2017-06-14T14:16:30.904Z,4.37
2017-06-14T14:18:58.952Z,4.97
2017-06-14T14:21:27.033Z,4.00
2017-06-14T14:23:55.086Z,4.57
2017-06-14T14:26:23.902Z,4.55
2017-06-14T14:28:51.967Z,4.10
2017-06-14T14:31:20.022Z,3.55
2017-06-14T14:33:48.857Z,4.35
2017-06-14T14:36:17.301Z,3.85
2017-06-14T14:38:45.351Z,4.22
2017-06-14T14:41:14.210Z,4.25
2017-06-14T14:43:42.261Z,3.47
2017-06-14T14:46:10.309Z,3.85
2017-06-14T14:48:38.397Z,3.65
2017-06-14T14:51:06.448Z,3.60
2017-06-14T14:53:34.501Z,3.40
2017-06-14T14:56:03.333Z,3.28
2017-06-14T14:58:31.389Z,3.53
2017-06-14T15:00:59.473Z,3.30
2017-06-14T15:03:27.524Z,3.40
2017-06-14T15:05:55.578Z,3.40
2017-06-14T15:08:23.657Z,3.60
2017-06-14T15:10:52.476Z,3.10
2017-06-14T15:13:20.521Z,3.50
2017-06-14T15:15:48.605Z,3.47
2017-06-14T15:18:16.654Z,3.85
2017-06-14T15:20:45.465Z,3.83
2017-06-14T15:23:13.560Z,3.70
2017-06-14T15:25:41.610Z,3.05
2017-06-14T15:28:09.661Z,4.43
2017-06-14T15:30:38.505Z,4.00
2017-06-14T15:33:06.557Z,3.70
2017-06-14T15:35:34.607Z,3.67
2017-06-14T15:38:02.682Z,3.40
2017-06-14T15:40:30.757Z,3.22
2017-06-14T15:42:58.809Z,3.22
2017-06-14T15:45:26.863Z,3.72
2017-06-14T15:47:54.953Z,2.90
2017-06-14T15:50:23.002Z,3.50
2017-06-14T15:52:51.053Z,3.65
2017-06-14T15:55:19.119Z,3.90
2017-06-14T15:57:47.181Z,3.90
2017-06-14T16:00:15.265Z,3.60
2017-06-14T16:02:43.314Z,3.67
2017-06-14T16:05:11.368Z,3.72
2017-06-14T16:07:39.449Z,4.97
2017-06-14T16:10:07.497Z,4.10
2017-06-14T16:12:36.321Z,3.78
2017-06-14T16:15:04.439Z,10.45
2017-06-14T16:17:32.497Z,3.85
2017-06-14T16:20:00.541Z,3.75
2017-06-14T16:22:29.025Z,3.22
2017-06-14T16:24:57.497Z,3.87
2017-06-14T16:27:25.541Z,3.75
2017-06-14T16:29:54.669Z,4.30
2017-06-14T16:32:22.717Z,3.70
2017-06-14T16:34:50.765Z,3.47
2017-06-14T16:37:19.613Z,3.80
2017-06-14T16:39:47.665Z,3.80
2017-06-14T16:42:15.713Z,3.47
2017-06-14T16:44:44.210Z,4.00
2017-06-14T16:47:12.258Z,3.95
2017-06-14T16:49:40.717Z,3.83
2017-06-14T16:52:08.783Z,3.80
2017-06-14T16:54:36.833Z,4.00
2017-06-14T16:57:04.885Z,4.00
2017-06-14T16:59:32.965Z,3.53
2017-06-14T17:02:01.014Z,4.10
2017-06-14T17:04:29.461Z,3.70
2017-06-14T17:06:57.545Z,4.20
2017-06-14T17:09:26.415Z,4.15
2017-06-14T17:11:54.466Z,4.40
2017-06-14T17:14:22.626Z,4.62
2017-06-14T17:16:51.077Z,4.12
2017-06-14T17:19:19.798Z,4.30
2017-06-14T17:21:47.964Z,3.87
2017-06-14T17:24:16.473Z,3.95
2017-06-14T17:26:44.620Z,3.58
2017-06-14T17:29:12.697Z,3.87
2017-06-14T17:31:40.769Z,4.40
2017-06-14T17:34:09.646Z,4.45
2017-06-14T17:36:38.162Z,3.70
2017-06-14T17:39:06.671Z,3.60
2017-06-14T17:41:35.109Z,3.95
2017-06-14T17:44:03.281Z,4.30
2017-06-14T17:46:31.762Z,3.67
2017-06-14T17:48:59.813Z,4.18
2017-06-14T17:51:28.721Z,3.70
2017-06-14T17:53:57.549Z,4.15
2017-06-14T17:56:25.685Z,3.53
2017-06-14T17:58:53.748Z,4.15
2017-06-14T18:01:21.820Z,4.15
2017-06-14T18:03:49.902Z,4.20
2017-06-14T18:06:18.993Z,3.50
2017-06-14T18:08:47.484Z,4.00
2017-06-14T18:11:15.653Z,3.30
2017-06-14T18:13:43.912Z,3.60
2017-06-14T18:16:11.997Z,4.20
2017-06-14T18:18:40.050Z,3.53
2017-06-14T18:21:08.144Z,3.40
2017-06-14T18:23:36.629Z,3.90
2017-06-14T18:26:04.682Z,3.30
2017-06-14T18:28:32.757Z,3.58
2017-06-14T18:31:00.845Z,3.55
2017-06-14T18:33:29.301Z,3.42
2017-06-14T18:35:57.802Z,3.70
2017-06-14T18:38:25.857Z,3.35
2017-06-14T18:40:53.962Z,4.12
2017-06-14T18:43:23.141Z,3.03
2017-06-14T18:45:51.211Z,3.25
2017-06-14T18:48:19.726Z,3.10
2017-06-14T18:50:47.875Z,3.72
2017-06-14T18:53:16.050Z,3.58
2017-06-14T18:55:44.101Z,3.72
2017-06-14T18:58:12.157Z,3.80
2017-06-14T19:00:41.089Z,3.67
2017-06-14T19:03:09.988Z,3.22
2017-06-14T19:05:38.029Z,3.30
2017-06-14T19:08:06.100Z,3.60
2017-06-14T19:10:34.148Z,4.05
2017-06-14T19:13:03.084Z,3.50
2017-06-14T19:15:31.139Z,3.67
2017-06-14T19:17:59.193Z,3.83
2017-06-14T19:20:28.049Z,3.30
2017-06-14T19:22:56.107Z,3.35
2017-06-14T19:25:24.554Z,3.60
2017-06-14T19:27:52.637Z,4.80
2017-06-14T19:30:20.698Z,3.53
2017-06-14T19:32:49.585Z,3.85
2017-06-14T19:35:18.053Z,3.92
2017-06-14T19:37:46.130Z,4.00
2017-06-14T19:40:15.259Z,3.83
2017-06-14T19:42:43.369Z,3.75
2017-06-14T19:45:11.419Z,3.95
2017-06-14T19:47:39.469Z,3.60
2017-06-14T19:50:07.542Z,4.15
2017-06-14T19:52:35.988Z,4.15
2017-06-14T19:55:04.434Z,4.05
2017-06-14T19:57:32.509Z,3.97
2017-06-14T20:00:00.572Z,4.28
2017-06-14T20:02:28.642Z,4.20
2017-06-14T20:04:56.715Z,4.18
2017-06-14T20:07:24.765Z,4.20
2017-06-14T20:09:52.818Z,3.80
2017-06-14T20:12:20.893Z,4.72
2017-06-14T20:14:49.337Z,4.00
2017-06-14T20:17:17.789Z,4.82
2017-06-14T20:19:45.864Z,6.45
2017-06-14T20:22:13.913Z,4.45
2017-06-14T20:24:42.358Z,4.40
2017-06-14T20:27:10.441Z,3.90
2017-06-14T20:29:38.489Z,4.45
2017-06-14T20:32:06.932Z,5.12
2017-06-14T20:34:35.045Z,4.25
2017-06-14T20:37:03.860Z,4.00
2017-06-14T20:39:31.909Z,3.97
2017-06-14T20:42:01.127Z,4.80
2017-06-14T20:44:29.569Z,4.60
2017-06-14T20:46:57.622Z,4.15
2017-06-14T20:49:25.713Z,4.93
2017-06-14T20:51:53.765Z,5.10
2017-06-14T20:56:57.918Z,4.28
2017-06-14T20:59:26.032Z,4.75
2017-06-14T21:01:54.090Z,5.05
2017-06-14T21:04:22.145Z,4.50
2017-06-14T21:06:50.973Z,4.68
2017-06-14T21:09:19.437Z,4.75
2017-06-14T21:11:47.526Z,4.45
2017-06-14T21:14:15.989Z,5.55
2017-06-14T21:16:44.042Z,4.57
2017-06-14T21:19:12.889Z,4.40
2017-06-14T21:21:40.966Z,4.78
2017-06-14T21:24:09.389Z,4.25
2017-06-14T21:26:38.241Z,4.75
2017-06-14T21:29:06.293Z,4.72
2017-06-14T21:31:34.741Z,4.32
2017-06-14T21:34:02.830Z,4.50
2017-06-14T21:36:30.890Z,4.37
2017-06-14T21:38:58.945Z,4.25
2017-06-14T21:41:27.978Z,4.10
2017-06-14T21:43:56.031Z,3.55
2017-06-14T21:46:24.081Z,3.83
2017-06-14T21:48:52.918Z,3.72
2017-06-14T21:51:20.961Z,3.75
2017-06-14T21:53:49.049Z,3.67
2017-06-14T21:56:17.102Z,3.70
2017-06-14T21:58:45.151Z,3.78
2017-06-14T22:01:13.995Z,4.45
2017-06-14T22:03:42.045Z,3.83
2017-06-14T22:06:10.098Z,3.72
2017-06-14T22:08:38.173Z,4.05
2017-06-14T22:11:06.230Z,4.22
2017-06-14T22:13:35.041Z,3.75
2017-06-14T22:16:03.125Z,3.67
2017-06-14T22:18:31.181Z,4.05
2017-06-14T22:20:59.233Z,3.90
2017-06-14T22:23:27.317Z,3.90
2017-06-14T22:25:55.370Z,4.03
2017-06-14T22:28:23.425Z,3.85
2017-06-14T22:30:51.508Z,3.25
2017-06-14T22:33:19.574Z,3.75
2017-06-14T22:35:47.626Z,3.70
2017-06-14T22:38:15.715Z,3.33
2017-06-14T22:40:43.769Z,2.65
2017-06-14T22:43:11.825Z,3.87
2017-06-14T22:45:39.914Z,3.60
2017-06-14T22:48:07.965Z,3.28
2017-06-14T22:50:36.017Z,2.92
2017-06-14T22:53:04.093Z,3.20
2017-06-14T22:55:32.145Z,3.45
2017-06-14T22:58:00.967Z,3.15
2017-06-14T23:00:29.425Z,3.75
2017-06-14T23:02:57.505Z,3.30
2017-06-14T23:05:25.557Z,3.33
2017-06-14T23:07:53.614Z,3.80
2017-06-14T23:10:21.681Z,4.12
2017-06-14T23:12:49.757Z,3.05
2017-06-14T23:15:17.809Z,3.10
2017-06-14T23:17:45.898Z,2.60
2017-06-14T23:20:14.343Z,3.15
2017-06-14T23:22:42.389Z,3.10
2017-06-14T23:25:10.465Z,3.25
2017-06-14T23:27:38.514Z,3.00
2017-06-14T23:30:07.334Z,3.08
2017-06-14T23:32:35.405Z,3.15
2017-06-14T23:35:03.457Z,3.28
2017-06-14T23:37:31.542Z,3.28
2017-06-14T23:39:59.594Z,2.95
2017-06-14T23:42:28.405Z,3.25
2017-06-14T23:44:56.893Z,2.80
2017-06-14T23:47:24.949Z,2.72
2017-06-14T23:49:52.996Z,2.67
2017-06-14T23:52:21.841Z,3.00
2017-06-14T23:54:49.889Z,2.90
2017-06-14T23:57:17.942Z,2.97
2017-06-14T23:59:46.020Z,2.50
